Terminal Aerodrome Forecast
Issued by NWS

Home | Current Version | Previous Version | Text Only | Print | Product List | Glossary On
Versions: 1 2 3 4 5 6 7 8 9 10 11 12 13 14 15 16 17 18 19
000
FTUS45 KTWC 230110 AAB
TAFOLS
TAF AMD
KOLS 230110Z 2301/2324 15015G25KT P6SM VCTS BKN110CB BKN200
     FM230300 14007KT P6SM SCT150
     FM231800 28007KT P6SM FEW150 FEW250
     FM232000 29012G18KT P6SM FEW150 SCT250=

USA.gov is the U.S. government's official web portal to all federal, state and local government web resources and services.